sensor_id;sensor_type;location;lat;lon;timestamp;P1;durP1;ratioP1;P2;durP2;ratioP2
76063;SDS011;64762;52.006;8.424;2023-05-08T00:00:17;12.73;;;5.63;;
76063;SDS011;64762;52.006;8.424;2023-05-08T00:02:43;9.90;;;5.60;;
76063;SDS011;64762;52.006;8.424;2023-05-08T00:05:08;10.93;;;5.97;;
76063;SDS011;64762;52.006;8.424;2023-05-08T00:07:34;10.87;;;6.23;;
76063;SDS011;64762;52.006;8.424;2023-05-08T00:10:01;11.45;;;6.47;;
76063;SDS011;64762;52.006;8.424;2023-05-08T00:12:26;9.88;;;5.50;;
76063;SDS011;64762;52.006;8.424;2023-05-08T00:14:52;12.00;;;5.60;;
76063;SDS011;64762;52.006;8.424;2023-05-08T00:17:17;8.47;;;4.93;;
76063;SDS011;64762;52.006;8.424;2023-05-08T00:19:42;9.90;;;5.43;;
76063;SDS011;64762;52.006;8.424;2023-05-08T00:22:08;10.30;;;5.90;;
76063;SDS011;64762;52.006;8.424;2023-05-08T00:24:33;9.13;;;5.37;;
76063;SDS011;64762;52.006;8.424;2023-05-08T00:26:58;10.33;;;5.73;;
76063;SDS011;64762;52.006;8.424;2023-05-08T00:29:24;10.23;;;5.72;;
76063;SDS011;64762;52.006;8.424;2023-05-08T00:31:49;10.80;;;5.77;;
76063;SDS011;64762;52.006;8.424;2023-05-08T00:34:14;10.23;;;5.63;;
76063;SDS011;64762;52.006;8.424;2023-05-08T00:36:39;9.47;;;5.73;;
76063;SDS011;64762;52.006;8.424;2023-05-08T00:39:05;10.20;;;6.17;;
76063;SDS011;64762;52.006;8.424;2023-05-08T00:41:30;10.95;;;5.97;;
76063;SDS011;64762;52.006;8.424;2023-05-08T00:43:56;11.30;;;6.35;;
76063;SDS011;64762;52.006;8.424;2023-05-08T00:46:21;10.73;;;6.27;;
76063;SDS011;64762;52.006;8.424;2023-05-08T00:48:47;10.68;;;6.43;;
76063;SDS011;64762;52.006;8.424;2023-05-08T00:51:12;12.82;;;6.18;;
76063;SDS011;64762;52.006;8.424;2023-05-08T00:53:39;11.80;;;6.45;;
76063;SDS011;64762;52.006;8.424;2023-05-08T00:56:08;10.80;;;5.40;;
76063;SDS011;64762;52.006;8.424;2023-05-08T00:58:35;11.35;;;6.13;;
76063;SDS011;64762;52.006;8.424;2023-05-08T01:01:00;11.80;;;5.80;;
76063;SDS011;64762;52.006;8.424;2023-05-08T01:03:26;9.27;;;5.80;;
76063;SDS011;64762;52.006;8.424;2023-05-08T01:05:52;10.60;;;6.22;;
76063;SDS011;64762;52.006;8.424;2023-05-08T01:08:18;10.68;;;6.57;;
76063;SDS011;64762;52.006;8.424;2023-05-08T01:13:41;9.98;;;6.57;;
76063;SDS011;64762;52.006;8.424;2023-05-08T01:16:15;10.60;;;6.22;;
76063;SDS011;64762;52.006;8.424;2023-05-08T01:18:44;9.70;;;5.75;;
76063;SDS011;64762;52.006;8.424;2023-05-08T01:21:33;10.57;;;6.25;;
76063;SDS011;64762;52.006;8.424;2023-05-08T01:27:00;12.30;;;6.10;;
76063;SDS011;64762;52.006;8.424;2023-05-08T01:32:26;13.48;;;6.75;;
76063;SDS011;64762;52.006;8.424;2023-05-08T01:43:09;14.02;;;6.95;;
76063;SDS011;64762;52.006;8.424;2023-05-08T01:45:39;11.98;;;6.97;;
76063;SDS011;64762;52.006;8.424;2023-05-08T01:48:09;12.35;;;6.97;;
76063;SDS011;64762;52.006;8.424;2023-05-08T01:50:40;10.68;;;6.65;;
76063;SDS011;64762;52.006;8.424;2023-05-08T01:53:16;10.77;;;6.70;;
76063;SDS011;64762;52.006;8.424;2023-05-08T01:55:56;15.00;;;6.82;;
76063;SDS011;64762;52.006;8.424;2023-05-08T01:58:23;11.82;;;7.10;;
76063;SDS011;64762;52.006;8.424;2023-05-08T02:00:48;10.82;;;6.40;;
76063;SDS011;64762;52.006;8.424;2023-05-08T02:03:15;12.60;;;7.30;;
76063;SDS011;64762;52.006;8.424;2023-05-08T02:05:41;11.77;;;6.68;;
76063;SDS011;64762;52.006;8.424;2023-05-08T02:08:07;10.68;;;6.38;;
76063;SDS011;64762;52.006;8.424;2023-05-08T02:10:33;12.85;;;7.20;;
76063;SDS011;64762;52.006;8.424;2023-05-08T02:12:59;12.57;;;7.28;;
76063;SDS011;64762;52.006;8.424;2023-05-08T02:15:25;11.55;;;6.90;;
76063;SDS011;64762;52.006;8.424;2023-05-08T02:17:51;15.75;;;6.57;;
76063;SDS011;64762;52.006;8.424;2023-05-08T02:20:18;13.27;;;6.88;;
76063;SDS011;64762;52.006;8.424;2023-05-08T02:22:45;11.90;;;7.05;;
76063;SDS011;64762;52.006;8.424;2023-05-08T02:25:13;13.55;;;7.13;;
76063;SDS011;64762;52.006;8.424;2023-05-08T02:27:43;13.05;;;7.40;;
76063;SDS011;64762;52.006;8.424;2023-05-08T02:30:13;13.27;;;6.93;;
76063;SDS011;64762;52.006;8.424;2023-05-08T02:32:40;12.95;;;7.32;;
76063;SDS011;64762;52.006;8.424;2023-05-08T02:35:07;13.20;;;7.55;;
76063;SDS011;64762;52.006;8.424;2023-05-08T02:37:33;11.70;;;6.70;;
76063;SDS011;64762;52.006;8.424;2023-05-08T02:39:59;13.80;;;6.78;;
76063;SDS011;64762;52.006;8.424;2023-05-08T02:42:35;11.40;;;6.55;;
76063;SDS011;64762;52.006;8.424;2023-05-08T02:45:00;15.20;;;7.30;;
76063;SDS011;64762;52.006;8.424;2023-05-08T02:47:33;12.10;;;7.07;;
76063;SDS011;64762;52.006;8.424;2023-05-08T02:50:13;13.18;;;7.30;;
76063;SDS011;64762;52.006;8.424;2023-05-08T02:52:49;13.18;;;7.35;;
76063;SDS011;64762;52.006;8.424;2023-05-08T02:55:22;13.38;;;7.35;;
76063;SDS011;64762;52.006;8.424;2023-05-08T02:57:54;11.60;;;6.90;;
76063;SDS011;64762;52.006;8.424;2023-05-08T03:00:25;14.20;;;7.63;;
76063;SDS011;64762;52.006;8.424;2023-05-08T03:02:53;12.65;;;7.45;;
76063;SDS011;64762;52.006;8.424;2023-05-08T03:05:24;12.63;;;6.72;;
76063;SDS011;64762;52.006;8.424;2023-05-08T03:07:55;11.82;;;7.13;;
76063;SDS011;64762;52.006;8.424;2023-05-08T03:10:24;13.20;;;6.97;;
76063;SDS011;64762;52.006;8.424;2023-05-08T03:12:52;11.68;;;7.03;;
76063;SDS011;64762;52.006;8.424;2023-05-08T03:17:51;15.18;;;7.75;;
76063;SDS011;64762;52.006;8.424;2023-05-08T03:20:19;12.52;;;7.45;;
76063;SDS011;64762;52.006;8.424;2023-05-08T03:22:45;14.48;;;7.55;;
76063;SDS011;64762;52.006;8.424;2023-05-08T03:25:12;13.38;;;7.78;;
76063;SDS011;64762;52.006;8.424;2023-05-08T03:27:40;15.07;;;7.50;;
76063;SDS011;64762;52.006;8.424;2023-05-08T03:30:11;16.23;;;8.43;;
76063;SDS011;64762;52.006;8.424;2023-05-08T03:32:37;15.23;;;7.97;;
76063;SDS011;64762;52.006;8.424;2023-05-08T03:35:03;14.55;;;7.82;;
76063;SDS011;64762;52.006;8.424;2023-05-08T03:37:29;17.80;;;8.80;;
76063;SDS011;64762;52.006;8.424;2023-05-08T03:39:55;13.90;;;8.40;;
76063;SDS011;64762;52.006;8.424;2023-05-08T03:42:21;13.82;;;8.18;;
76063;SDS011;64762;52.006;8.424;2023-05-08T03:44:49;16.13;;;9.02;;
76063;SDS011;64762;52.006;8.424;2023-05-08T03:47:15;17.25;;;9.07;;
76063;SDS011;64762;52.006;8.424;2023-05-08T03:49:42;14.60;;;8.63;;
76063;SDS011;64762;52.006;8.424;2023-05-08T03:52:10;14.55;;;7.72;;
76063;SDS011;64762;52.006;8.424;2023-05-08T03:54:36;16.80;;;8.77;;
76063;SDS011;64762;52.006;8.424;2023-05-08T03:57:01;16.93;;;9.63;;
76063;SDS011;64762;52.006;8.424;2023-05-08T03:59:29;14.23;;;8.23;;
76063;SDS011;64762;52.006;8.424;2023-05-08T04:02:00;15.48;;;9.40;;
76063;SDS011;64762;52.006;8.424;2023-05-08T04:04:38;17.42;;;8.52;;
76063;SDS011;64762;52.006;8.424;2023-05-08T04:12:21;15.98;;;9.00;;
76063;SDS011;64762;52.006;8.424;2023-05-08T04:15:00;18.85;;;9.38;;
76063;SDS011;64762;52.006;8.424;2023-05-08T04:20:02;16.02;;;9.23;;
76063;SDS011;64762;52.006;8.424;2023-05-08T04:22:28;16.58;;;9.75;;
76063;SDS011;64762;52.006;8.424;2023-05-08T04:24:56;15.02;;;9.05;;
76063;SDS011;64762;52.006;8.424;2023-05-08T04:27:23;21.15;;;9.57;;
76063;SDS011;64762;52.006;8.424;2023-05-08T04:29:49;17.40;;;9.90;;
76063;SDS011;64762;52.006;8.424;2023-05-08T04:32:14;18.33;;;9.07;;
76063;SDS011;64762;52.006;8.424;2023-05-08T04:34:40;15.32;;;9.00;;
76063;SDS011;64762;52.006;8.424;2023-05-08T04:37:06;17.33;;;9.48;;
76063;SDS011;64762;52.006;8.424;2023-05-08T04:39:32;16.50;;;9.10;;
76063;SDS011;64762;52.006;8.424;2023-05-08T04:41:57;15.57;;;9.10;;
76063;SDS011;64762;52.006;8.424;2023-05-08T04:44:27;16.45;;;9.23;;
76063;SDS011;64762;52.006;8.424;2023-05-08T04:46:53;18.08;;;9.45;;
76063;SDS011;64762;52.006;8.424;2023-05-08T04:49:18;16.90;;;9.70;;
76063;SDS011;64762;52.006;8.424;2023-05-08T04:51:44;16.20;;;9.02;;
76063;SDS011;64762;52.006;8.424;2023-05-08T04:54:09;14.80;;;8.10;;
76063;SDS011;64762;52.006;8.424;2023-05-08T04:56:34;13.87;;;8.30;;
76063;SDS011;64762;52.006;8.424;2023-05-08T04:59:01;15.33;;;9.00;;
76063;SDS011;64762;52.006;8.424;2023-05-08T05:01:26;15.30;;;7.70;;
76063;SDS011;64762;52.006;8.424;2023-05-08T05:03:52;16.05;;;9.05;;
76063;SDS011;64762;52.006;8.424;2023-05-08T05:06:17;13.98;;;7.88;;
76063;SDS011;64762;52.006;8.424;2023-05-08T05:08:43;15.13;;;8.53;;
76063;SDS011;64762;52.006;8.424;2023-05-08T05:11:09;15.27;;;8.25;;
76063;SDS011;64762;52.006;8.424;2023-05-08T05:13:35;14.57;;;8.02;;
76063;SDS011;64762;52.006;8.424;2023-05-08T05:16:01;14.70;;;7.70;;
76063;SDS011;64762;52.006;8.424;2023-05-08T05:18:26;14.27;;;8.03;;
76063;SDS011;64762;52.006;8.424;2023-05-08T05:20:51;14.30;;;8.77;;
76063;SDS011;64762;52.006;8.424;2023-05-08T05:23:17;17.25;;;8.15;;
76063;SDS011;64762;52.006;8.424;2023-05-08T05:25:42;14.60;;;8.55;;
76063;SDS011;64762;52.006;8.424;2023-05-08T05:28:08;17.40;;;9.48;;
76063;SDS011;64762;52.006;8.424;2023-05-08T05:30:33;14.32;;;8.27;;
76063;SDS011;64762;52.006;8.424;2023-05-08T05:32:59;13.27;;;8.52;;
76063;SDS011;64762;52.006;8.424;2023-05-08T05:35:24;13.13;;;8.68;;
76063;SDS011;64762;52.006;8.424;2023-05-08T05:37:49;13.93;;;7.70;;
76063;SDS011;64762;52.006;8.424;2023-05-08T05:40:15;16.08;;;8.90;;
76063;SDS011;64762;52.006;8.424;2023-05-08T05:42:40;17.40;;;9.33;;
76063;SDS011;64762;52.006;8.424;2023-05-08T05:45:06;15.73;;;8.50;;
76063;SDS011;64762;52.006;8.424;2023-05-08T05:47:31;15.80;;;8.75;;
76063;SDS011;64762;52.006;8.424;2023-05-08T05:49:57;15.63;;;8.90;;
76063;SDS011;64762;52.006;8.424;2023-05-08T05:52:22;13.50;;;7.72;;
76063;SDS011;64762;52.006;8.424;2023-05-08T05:54:48;16.80;;;8.50;;
76063;SDS011;64762;52.006;8.424;2023-05-08T05:57:13;15.27;;;8.03;;
76063;SDS011;64762;52.006;8.424;2023-05-08T05:59:39;17.23;;;7.90;;
76063;SDS011;64762;52.006;8.424;2023-05-08T06:02:05;14.77;;;8.02;;
76063;SDS011;64762;52.006;8.424;2023-05-08T06:04:31;14.95;;;8.20;;
76063;SDS011;64762;52.006;8.424;2023-05-08T06:06:57;13.30;;;8.33;;
76063;SDS011;64762;52.006;8.424;2023-05-08T06:09:22;14.23;;;7.90;;
76063;SDS011;64762;52.006;8.424;2023-05-08T06:11:48;15.65;;;8.20;;
76063;SDS011;64762;52.006;8.424;2023-05-08T06:14:13;12.80;;;7.63;;
76063;SDS011;64762;52.006;8.424;2023-05-08T06:16:38;13.63;;;8.17;;
76063;SDS011;64762;52.006;8.424;2023-05-08T06:19:04;15.07;;;8.18;;
76063;SDS011;64762;52.006;8.424;2023-05-08T06:21:29;15.03;;;8.10;;
76063;SDS011;64762;52.006;8.424;2023-05-08T06:23:54;17.15;;;8.63;;
76063;SDS011;64762;52.006;8.424;2023-05-08T06:26:20;13.60;;;8.10;;
76063;SDS011;64762;52.006;8.424;2023-05-08T06:28:47;12.68;;;8.20;;
76063;SDS011;64762;52.006;8.424;2023-05-08T06:31:12;13.53;;;8.30;;
76063;SDS011;64762;52.006;8.424;2023-05-08T06:33:37;13.73;;;8.13;;
76063;SDS011;64762;52.006;8.424;2023-05-08T06:36:06;17.43;;;8.87;;
76063;SDS011;64762;52.006;8.424;2023-05-08T06:38:31;14.95;;;8.95;;
76063;SDS011;64762;52.006;8.424;2023-05-08T06:40:56;19.47;;;8.93;;
76063;SDS011;64762;52.006;8.424;2023-05-08T06:43:22;17.00;;;8.93;;
76063;SDS011;64762;52.006;8.424;2023-05-08T06:45:47;16.65;;;9.15;;
76063;SDS011;64762;52.006;8.424;2023-05-08T06:48:13;13.70;;;8.25;;
76063;SDS011;64762;52.006;8.424;2023-05-08T06:50:38;16.67;;;8.90;;
76063;SDS011;64762;52.006;8.424;2023-05-08T06:53:04;18.92;;;8.63;;
76063;SDS011;64762;52.006;8.424;2023-05-08T06:55:31;14.02;;;8.18;;
76063;SDS011;64762;52.006;8.424;2023-05-08T06:57:57;19.33;;;9.32;;
76063;SDS011;64762;52.006;8.424;2023-05-08T07:00:22;15.35;;;8.77;;
76063;SDS011;64762;52.006;8.424;2023-05-08T07:02:48;13.95;;;8.30;;
76063;SDS011;64762;52.006;8.424;2023-05-08T07:05:13;13.87;;;8.40;;
76063;SDS011;64762;52.006;8.424;2023-05-08T07:07:38;14.60;;;8.05;;
76063;SDS011;64762;52.006;8.424;2023-05-08T07:10:06;16.30;;;9.52;;
76063;SDS011;64762;52.006;8.424;2023-05-08T07:12:32;16.80;;;8.02;;
76063;SDS011;64762;52.006;8.424;2023-05-08T07:14:57;15.65;;;9.15;;
76063;SDS011;64762;52.006;8.424;2023-05-08T07:17:23;15.73;;;9.05;;
76063;SDS011;64762;52.006;8.424;2023-05-08T07:19:51;18.73;;;10.33;;
76063;SDS011;64762;52.006;8.424;2023-05-08T07:22:16;16.52;;;8.75;;
76063;SDS011;64762;52.006;8.424;2023-05-08T07:24:42;15.67;;;9.00;;
76063;SDS011;64762;52.006;8.424;2023-05-08T07:27:07;17.77;;;9.73;;
76063;SDS011;64762;52.006;8.424;2023-05-08T07:29:33;14.13;;;8.75;;
76063;SDS011;64762;52.006;8.424;2023-05-08T07:32:00;14.07;;;8.93;;
76063;SDS011;64762;52.006;8.424;2023-05-08T07:34:25;14.52;;;8.50;;
76063;SDS011;64762;52.006;8.424;2023-05-08T07:36:51;12.75;;;8.57;;
76063;SDS011;64762;52.006;8.424;2023-05-08T07:39:16;16.93;;;9.47;;
76063;SDS011;64762;52.006;8.424;2023-05-08T07:41:41;15.00;;;8.80;;
76063;SDS011;64762;52.006;8.424;2023-05-08T07:44:07;15.73;;;8.63;;
76063;SDS011;64762;52.006;8.424;2023-05-08T07:46:32;13.03;;;8.57;;
76063;SDS011;64762;52.006;8.424;2023-05-08T07:48:57;13.80;;;8.83;;
76063;SDS011;64762;52.006;8.424;2023-05-08T07:51:23;14.83;;;8.80;;
76063;SDS011;64762;52.006;8.424;2023-05-08T07:53:48;16.52;;;9.27;;
76063;SDS011;64762;52.006;8.424;2023-05-08T07:56:15;15.55;;;8.52;;
76063;SDS011;64762;52.006;8.424;2023-05-08T07:58:40;13.27;;;8.60;;
76063;SDS011;64762;52.006;8.424;2023-05-08T08:01:06;17.10;;;8.02;;
76063;SDS011;64762;52.006;8.424;2023-05-08T08:03:32;11.95;;;7.82;;
76063;SDS011;64762;52.006;8.424;2023-05-08T08:05:57;13.63;;;8.43;;
76063;SDS011;64762;52.006;8.424;2023-05-08T08:08:22;14.70;;;8.13;;
76063;SDS011;64762;52.006;8.424;2023-05-08T08:10:48;13.63;;;7.70;;
76063;SDS011;64762;52.006;8.424;2023-05-08T08:13:14;12.57;;;8.63;;
76063;SDS011;64762;52.006;8.424;2023-05-08T08:15:39;12.30;;;7.77;;
76063;SDS011;64762;52.006;8.424;2023-05-08T08:18:05;14.25;;;9.23;;
76063;SDS011;64762;52.006;8.424;2023-05-08T08:20:31;15.18;;;8.55;;
76063;SDS011;64762;52.006;8.424;2023-05-08T08:22:57;13.68;;;8.13;;
76063;SDS011;64762;52.006;8.424;2023-05-08T08:25:22;16.10;;;7.90;;
76063;SDS011;64762;52.006;8.424;2023-05-08T08:27:48;14.32;;;8.13;;
76063;SDS011;64762;52.006;8.424;2023-05-08T08:30:14;12.85;;;7.13;;
76063;SDS011;64762;52.006;8.424;2023-05-08T08:32:39;12.48;;;8.13;;
76063;SDS011;64762;52.006;8.424;2023-05-08T08:35:05;13.48;;;8.13;;
76063;SDS011;64762;52.006;8.424;2023-05-08T08:37:30;14.65;;;8.25;;
76063;SDS011;64762;52.006;8.424;2023-05-08T08:39:56;13.07;;;7.53;;
76063;SDS011;64762;52.006;8.424;2023-05-08T08:42:21;11.47;;;7.33;;
76063;SDS011;64762;52.006;8.424;2023-05-08T08:44:47;12.23;;;7.93;;
76063;SDS011;64762;52.006;8.424;2023-05-08T08:47:13;13.20;;;7.57;;
76063;SDS011;64762;52.006;8.424;2023-05-08T08:49:42;12.20;;;7.68;;
76063;SDS011;64762;52.006;8.424;2023-05-08T08:52:31;13.63;;;7.63;;
76063;SDS011;64762;52.006;8.424;2023-05-08T08:55:04;12.77;;;7.50;;
76063;SDS011;64762;52.006;8.424;2023-05-08T08:57:33;12.23;;;7.30;;
76063;SDS011;64762;52.006;8.424;2023-05-08T09:10:06;11.82;;;7.28;;
76063;SDS011;64762;52.006;8.424;2023-05-08T09:12:32;12.98;;;6.97;;
76063;SDS011;64762;52.006;8.424;2023-05-08T09:14:58;12.53;;;7.43;;
76063;SDS011;64762;52.006;8.424;2023-05-08T09:17:23;11.38;;;7.32;;
76063;SDS011;64762;52.006;8.424;2023-05-08T09:19:48;12.07;;;6.70;;
76063;SDS011;64762;52.006;8.424;2023-05-08T09:22:14;12.30;;;7.78;;
76063;SDS011;64762;52.006;8.424;2023-05-08T09:24:53;11.68;;;6.18;;
76063;SDS011;64762;52.006;8.424;2023-05-08T09:27:21;11.00;;;7.40;;
76063;SDS011;64762;52.006;8.424;2023-05-08T09:29:57;12.13;;;6.93;;
76063;SDS011;64762;52.006;8.424;2023-05-08T09:32:30;13.35;;;7.18;;
76063;SDS011;64762;52.006;8.424;2023-05-08T09:34:56;14.15;;;7.82;;
76063;SDS011;64762;52.006;8.424;2023-05-08T09:37:22;11.25;;;6.97;;
76063;SDS011;64762;52.006;8.424;2023-05-08T09:39:47;11.88;;;7.00;;
76063;SDS011;64762;52.006;8.424;2023-05-08T09:42:13;11.98;;;6.75;;
76063;SDS011;64762;52.006;8.424;2023-05-08T09:47:18;10.40;;;6.75;;
76063;SDS011;64762;52.006;8.424;2023-05-08T09:50:02;10.73;;;7.55;;
76063;SDS011;64762;52.006;8.424;2023-05-08T09:52:29;13.85;;;7.70;;
76063;SDS011;64762;52.006;8.424;2023-05-08T09:57:24;10.85;;;6.85;;
76063;SDS011;64762;52.006;8.424;2023-05-08T09:59:50;13.32;;;7.68;;
76063;SDS011;64762;52.006;8.424;2023-05-08T10:02:16;10.80;;;7.07;;
76063;SDS011;64762;52.006;8.424;2023-05-08T10:04:41;11.80;;;7.47;;
76063;SDS011;64762;52.006;8.424;2023-05-08T10:07:07;12.15;;;7.47;;
76063;SDS011;64762;52.006;8.424;2023-05-08T10:09:32;11.85;;;6.95;;
76063;SDS011;64762;52.006;8.424;2023-05-08T10:11:57;13.70;;;7.70;;
76063;SDS011;64762;52.006;8.424;2023-05-08T10:14:23;12.33;;;7.93;;
76063;SDS011;64762;52.006;8.424;2023-05-08T10:16:49;11.93;;;8.15;;
76063;SDS011;64762;52.006;8.424;2023-05-08T10:19:17;13.57;;;8.77;;
76063;SDS011;64762;52.006;8.424;2023-05-08T10:21:45;12.93;;;7.82;;
76063;SDS011;64762;52.006;8.424;2023-05-08T10:24:15;12.02;;;8.73;;
76063;SDS011;64762;52.006;8.424;2023-05-08T10:26:43;13.82;;;8.20;;
76063;SDS011;64762;52.006;8.424;2023-05-08T10:29:20;14.57;;;8.55;;
76063;SDS011;64762;52.006;8.424;2023-05-08T10:31:49;15.00;;;8.68;;
76063;SDS011;64762;52.006;8.424;2023-05-08T10:34:19;12.20;;;8.25;;
76063;SDS011;64762;52.006;8.424;2023-05-08T10:36:46;11.90;;;7.43;;
76063;SDS011;64762;52.006;8.424;2023-05-08T10:39:13;14.00;;;7.40;;
76063;SDS011;64762;52.006;8.424;2023-05-08T10:41:40;12.10;;;8.13;;
76063;SDS011;64762;52.006;8.424;2023-05-08T10:44:05;13.85;;;8.93;;
76063;SDS011;64762;52.006;8.424;2023-05-08T10:46:40;13.35;;;8.05;;
76063;SDS011;64762;52.006;8.424;2023-05-08T10:49:43;10.80;;;6.90;;
76063;SDS011;64762;52.006;8.424;2023-05-08T10:57:28;14.88;;;7.93;;
76063;SDS011;64762;52.006;8.424;2023-05-08T10:59:53;16.50;;;8.90;;
76063;SDS011;64762;52.006;8.424;2023-05-08T11:02:24;14.60;;;9.10;;
76063;SDS011;64762;52.006;8.424;2023-05-08T11:04:52;14.48;;;8.93;;
76063;SDS011;64762;52.006;8.424;2023-05-08T11:07:17;12.93;;;8.60;;
76063;SDS011;64762;52.006;8.424;2023-05-08T11:09:46;11.63;;;6.63;;
76063;SDS011;64762;52.006;8.424;2023-05-08T11:12:19;13.15;;;8.38;;
76063;SDS011;64762;52.006;8.424;2023-05-08T11:14:56;13.77;;;8.85;;
76063;SDS011;64762;52.006;8.424;2023-05-08T11:17:25;11.60;;;8.00;;
76063;SDS011;64762;52.006;8.424;2023-05-08T11:19:54;11.90;;;7.80;;
76063;SDS011;64762;52.006;8.424;2023-05-08T11:22:22;13.68;;;7.68;;
76063;SDS011;64762;52.006;8.424;2023-05-08T11:24:53;13.35;;;8.43;;
76063;SDS011;64762;52.006;8.424;2023-05-08T11:27:30;13.65;;;8.75;;
76063;SDS011;64762;52.006;8.424;2023-05-08T11:32:56;14.70;;;8.68;;
76063;SDS011;64762;52.006;8.424;2023-05-08T11:38:16;14.15;;;7.28;;
76063;SDS011;64762;52.006;8.424;2023-05-08T11:46:04;12.07;;;7.30;;
76063;SDS011;64762;52.006;8.424;2023-05-08T11:48:39;12.23;;;8.07;;
76063;SDS011;64762;52.006;8.424;2023-05-08T11:51:05;12.38;;;7.65;;
76063;SDS011;64762;52.006;8.424;2023-05-08T11:53:31;12.70;;;8.68;;
76063;SDS011;64762;52.006;8.424;2023-05-08T11:55:58;17.30;;;9.55;;
76063;SDS011;64762;52.006;8.424;2023-05-08T11:58:24;15.85;;;9.57;;
76063;SDS011;64762;52.006;8.424;2023-05-08T12:00:50;14.82;;;10.40;;
76063;SDS011;64762;52.006;8.424;2023-05-08T12:03:16;15.80;;;8.75;;
76063;SDS011;64762;52.006;8.424;2023-05-08T12:05:43;19.10;;;11.23;;
76063;SDS011;64762;52.006;8.424;2023-05-08T12:08:09;15.52;;;10.27;;
76063;SDS011;64762;52.006;8.424;2023-05-08T12:10:39;12.20;;;8.73;;
76063;SDS011;64762;52.006;8.424;2023-05-08T12:13:25;15.07;;;9.90;;
76063;SDS011;64762;52.006;8.424;2023-05-08T12:15:52;18.42;;;9.93;;
76063;SDS011;64762;52.006;8.424;2023-05-08T12:18:19;18.48;;;9.80;;
76063;SDS011;64762;52.006;8.424;2023-05-08T12:20:44;15.70;;;10.27;;
76063;SDS011;64762;52.006;8.424;2023-05-08T12:23:10;20.13;;;9.68;;
76063;SDS011;64762;52.006;8.424;2023-05-08T12:25:39;16.77;;;10.27;;
76063;SDS011;64762;52.006;8.424;2023-05-08T12:28:08;19.17;;;11.57;;
76063;SDS011;64762;52.006;8.424;2023-05-08T12:32:59;21.93;;;10.50;;
76063;SDS011;64762;52.006;8.424;2023-05-08T12:35:25;16.90;;;10.13;;
76063;SDS011;64762;52.006;8.424;2023-05-08T12:37:50;18.60;;;10.68;;
76063;SDS011;64762;52.006;8.424;2023-05-08T12:40:26;18.05;;;10.02;;
76063;SDS011;64762;52.006;8.424;2023-05-08T12:42:53;15.23;;;9.63;;
76063;SDS011;64762;52.006;8.424;2023-05-08T12:45:19;15.35;;;9.48;;
76063;SDS011;64762;52.006;8.424;2023-05-08T12:47:49;17.58;;;10.68;;
76063;SDS011;64762;52.006;8.424;2023-05-08T12:50:16;20.60;;;11.65;;
76063;SDS011;64762;52.006;8.424;2023-05-08T12:52:43;19.27;;;11.88;;
76063;SDS011;64762;52.006;8.424;2023-05-08T12:57:50;18.90;;;12.38;;
76063;SDS011;64762;52.006;8.424;2023-05-08T13:00:24;17.27;;;11.23;;
76063;SDS011;64762;52.006;8.424;2023-05-08T13:02:53;14.77;;;10.52;;
76063;SDS011;64762;52.006;8.424;2023-05-08T13:05:20;17.83;;;10.48;;
76063;SDS011;64762;52.006;8.424;2023-05-08T13:07:47;18.23;;;11.18;;
76063;SDS011;64762;52.006;8.424;2023-05-08T13:10:12;16.73;;;10.68;;
76063;SDS011;64762;52.006;8.424;2023-05-08T13:12:38;17.07;;;11.20;;
76063;SDS011;64762;52.006;8.424;2023-05-08T13:15:03;18.27;;;10.43;;
76063;SDS011;64762;52.006;8.424;2023-05-08T13:17:30;18.10;;;10.13;;
76063;SDS011;64762;52.006;8.424;2023-05-08T13:19:55;17.93;;;10.97;;
76063;SDS011;64762;52.006;8.424;2023-05-08T13:22:20;15.03;;;9.97;;
76063;SDS011;64762;52.006;8.424;2023-05-08T13:24:50;16.30;;;9.85;;
76063;SDS011;64762;52.006;8.424;2023-05-08T13:27:17;16.10;;;10.77;;
76063;SDS011;64762;52.006;8.424;2023-05-08T13:29:42;16.60;;;9.90;;
76063;SDS011;64762;52.006;8.424;2023-05-08T13:32:08;14.80;;;8.90;;
76063;SDS011;64762;52.006;8.424;2023-05-08T13:34:33;17.50;;;10.03;;
76063;SDS011;64762;52.006;8.424;2023-05-08T13:36:58;17.43;;;10.50;;
76063;SDS011;64762;52.006;8.424;2023-05-08T13:39:24;19.63;;;10.97;;
76063;SDS011;64762;52.006;8.424;2023-05-08T13:41:49;17.20;;;10.97;;
76063;SDS011;64762;52.006;8.424;2023-05-08T13:44:14;15.73;;;10.27;;
76063;SDS011;64762;52.006;8.424;2023-05-08T13:46:40;20.80;;;12.33;;
76063;SDS011;64762;52.006;8.424;2023-05-08T13:49:05;15.87;;;10.40;;
76063;SDS011;64762;52.006;8.424;2023-05-08T13:51:30;18.80;;;11.73;;
76063;SDS011;64762;52.006;8.424;2023-05-08T13:53:55;15.80;;;10.40;;
76063;SDS011;64762;52.006;8.424;2023-05-08T13:56:21;21.30;;;12.43;;
76063;SDS011;64762;52.006;8.424;2023-05-08T13:58:46;16.92;;;10.10;;
76063;SDS011;64762;52.006;8.424;2023-05-08T14:01:12;17.67;;;11.67;;
76063;SDS011;64762;52.006;8.424;2023-05-08T14:03:37;15.67;;;10.43;;
76063;SDS011;64762;52.006;8.424;2023-05-08T14:06:03;16.27;;;10.07;;
76063;SDS011;64762;52.006;8.424;2023-05-08T14:08:29;16.25;;;10.57;;
76063;SDS011;64762;52.006;8.424;2023-05-08T14:10:54;17.70;;;11.23;;
76063;SDS011;64762;52.006;8.424;2023-05-08T14:13:20;19.23;;;11.80;;
76063;SDS011;64762;52.006;8.424;2023-05-08T14:15:45;14.50;;;10.00;;
76063;SDS011;64762;52.006;8.424;2023-05-08T14:18:10;18.00;;;10.17;;
76063;SDS011;64762;52.006;8.424;2023-05-08T14:20:36;18.53;;;10.13;;
76063;SDS011;64762;52.006;8.424;2023-05-08T14:23:01;15.77;;;10.77;;
76063;SDS011;64762;52.006;8.424;2023-05-08T14:25:27;15.60;;;9.80;;
76063;SDS011;64762;52.006;8.424;2023-05-08T14:27:53;14.63;;;10.10;;
76063;SDS011;64762;52.006;8.424;2023-05-08T14:30:19;14.03;;;9.50;;
76063;SDS011;64762;52.006;8.424;2023-05-08T14:32:44;13.40;;;7.95;;
76063;SDS011;64762;52.006;8.424;2023-05-08T14:35:10;15.90;;;8.63;;
76063;SDS011;64762;52.006;8.424;2023-05-08T14:37:35;12.57;;;8.40;;
76063;SDS011;64762;52.006;8.424;2023-05-08T14:40:01;16.80;;;8.83;;
76063;SDS011;64762;52.006;8.424;2023-05-08T14:42:26;14.53;;;8.70;;
76063;SDS011;64762;52.006;8.424;2023-05-08T14:44:51;14.17;;;9.00;;
76063;SDS011;64762;52.006;8.424;2023-05-08T14:47:16;13.83;;;8.80;;
76063;SDS011;64762;52.006;8.424;2023-05-08T14:49:42;13.40;;;8.40;;
76063;SDS011;64762;52.006;8.424;2023-05-08T14:52:07;14.47;;;8.40;;
76063;SDS011;64762;52.006;8.424;2023-05-08T14:54:32;12.87;;;7.87;;
76063;SDS011;64762;52.006;8.424;2023-05-08T14:56:58;13.13;;;8.13;;
76063;SDS011;64762;52.006;8.424;2023-05-08T14:59:23;13.30;;;8.10;;
76063;SDS011;64762;52.006;8.424;2023-05-08T15:01:48;12.83;;;8.07;;
76063;SDS011;64762;52.006;8.424;2023-05-08T15:04:14;13.63;;;8.90;;
76063;SDS011;64762;52.006;8.424;2023-05-08T15:06:39;13.17;;;8.13;;
76063;SDS011;64762;52.006;8.424;2023-05-08T15:09:07;14.82;;;8.25;;
76063;SDS011;64762;52.006;8.424;2023-05-08T15:11:33;19.05;;;9.18;;
76063;SDS011;64762;52.006;8.424;2023-05-08T15:13:59;13.52;;;9.43;;
76063;SDS011;64762;52.006;8.424;2023-05-08T15:16:25;15.68;;;8.68;;
76063;SDS011;64762;52.006;8.424;2023-05-08T15:18:51;17.33;;;8.90;;
76063;SDS011;64762;52.006;8.424;2023-05-08T15:21:16;17.53;;;9.07;;
76063;SDS011;64762;52.006;8.424;2023-05-08T15:23:42;15.65;;;9.60;;
76063;SDS011;64762;52.006;8.424;2023-05-08T15:26:08;17.70;;;10.27;;
76063;SDS011;64762;52.006;8.424;2023-05-08T15:28:33;19.33;;;11.33;;
76063;SDS011;64762;52.006;8.424;2023-05-08T15:30:58;15.87;;;10.33;;
76063;SDS011;64762;52.006;8.424;2023-05-08T15:33:25;17.20;;;9.60;;
76063;SDS011;64762;52.006;8.424;2023-05-08T15:35:50;15.63;;;9.50;;